sensor_id;sensor_type;location;lat;lon;timestamp;pressure;altitude;pressure_sealevel;temperature;humidity
37776;BME280;23614;33.774;130.514;2022-09-14T00:01:46;100767.91;;;33.28;40.72
37776;BME280;23614;33.774;130.514;2022-09-14T00:04:14;100763.96;;;33.31;40.80
37776;BME280;23614;33.774;130.514;2022-09-14T00:06:39;100764.63;;;33.80;40.18
37776;BME280;23614;33.774;130.514;2022-09-14T00:09:05;100760.82;;;33.78;39.76
37776;BME280;23614;33.774;130.514;2022-09-14T00:11:31;100756.31;;;34.06;39.29
37776;BME280;23614;33.774;130.514;2022-09-14T00:13:58;100759.82;;;33.80;39.07
37776;BME280;23614;33.774;130.514;2022-09-14T00:16:23;100761.92;;;34.10;39.20
37776;BME280;23614;33.774;130.514;2022-09-14T00:18:52;100767.09;;;34.17;38.84
37776;BME280;23614;33.774;130.514;2022-09-14T00:21:14;100772.64;;;34.11;38.85
37776;BME280;23614;33.774;130.514;2022-09-14T00:23:41;100772.17;;;33.99;38.40
37776;BME280;23614;33.774;130.514;2022-09-14T00:26:08;100769.91;;;33.95;38.93
37776;BME280;23614;33.774;130.514;2022-09-14T00:28:37;100769.90;;;34.05;38.83
37776;BME280;23614;33.774;130.514;2022-09-14T00:30:58;100770.70;;;34.13;38.85
37776;BME280;23614;33.774;130.514;2022-09-14T00:33:24;100779.04;;;33.99;38.78
37776;BME280;23614;33.774;130.514;2022-09-14T00:35:50;100781.56;;;34.08;38.86
37776;BME280;23614;33.774;130.514;2022-09-14T00:38:16;100781.21;;;34.15;38.52
37776;BME280;23614;33.774;130.514;2022-09-14T00:40:43;100772.71;;;34.37;38.26
37776;BME280;23614;33.774;130.514;2022-09-14T00:43:14;100778.42;;;34.26;38.11
37776;BME280;23614;33.774;130.514;2022-09-14T00:45:34;100778.45;;;34.12;38.98
37776;BME280;23614;33.774;130.514;2022-09-14T00:48:00;100777.79;;;34.22;38.39
37776;BME280;23614;33.774;130.514;2022-09-14T00:50:26;100773.81;;;34.04;38.23
37776;BME280;23614;33.774;130.514;2022-09-14T00:52:52;100771.46;;;34.21;38.23
37776;BME280;23614;33.774;130.514;2022-09-14T00:55:21;100769.98;;;34.30;37.55
37776;BME280;23614;33.774;130.514;2022-09-14T00:57:46;100770.70;;;33.99;37.80
37776;BME280;23614;33.774;130.514;2022-09-14T01:00:12;100773.06;;;34.31;37.50
37776;BME280;23614;33.774;130.514;2022-09-14T01:02:37;100767.17;;;34.43;36.99
37776;BME280;23614;33.774;130.514;2022-09-14T01:05:02;100771.27;;;34.60;37.27
37776;BME280;23614;33.774;130.514;2022-09-14T01:07:41;100768.44;;;34.46;37.10
37776;BME280;23614;33.774;130.514;2022-09-14T01:10:02;100770.14;;;34.58;36.89
37776;BME280;23614;33.774;130.514;2022-09-14T01:12:27;100763.52;;;34.53;36.88
37776;BME280;23614;33.774;130.514;2022-09-14T01:14:53;100764.29;;;34.27;37.06
37776;BME280;23614;33.774;130.514;2022-09-14T01:17:16;100763.64;;;34.35;36.98
37776;BME280;23614;33.774;130.514;2022-09-14T01:20:23;100768.83;;;34.86;36.55
37776;BME280;23614;33.774;130.514;2022-09-14T01:22:11;100770.76;;;34.70;36.80
37776;BME280;23614;33.774;130.514;2022-09-14T01:24:40;100766.02;;;34.69;35.96
37776;BME280;23614;33.774;130.514;2022-09-14T01:27:15;100768.49;;;34.81;36.22
37776;BME280;23614;33.774;130.514;2022-09-14T01:29:26;100765.17;;;34.94;35.95
37776;BME280;23614;33.774;130.514;2022-09-14T01:31:52;100763.82;;;34.70;36.58
37776;BME280;23614;33.774;130.514;2022-09-14T01:34:18;100760.06;;;34.90;36.06
37776;BME280;23614;33.774;130.514;2022-09-14T01:36:41;100762.07;;;34.97;35.57
37776;BME280;23614;33.774;130.514;2022-09-14T01:39:06;100760.19;;;34.47;36.24
37776;BME280;23614;33.774;130.514;2022-09-14T01:41:31;100763.70;;;34.92;35.72
37776;BME280;23614;33.774;130.514;2022-09-14T01:43:59;100756.28;;;35.28;35.33
37776;BME280;23614;33.774;130.514;2022-09-14T01:46:27;100757.81;;;35.10;35.14
37776;BME280;23614;33.774;130.514;2022-09-14T01:48:57;100750.38;;;35.06;35.64
37776;BME280;23614;33.774;130.514;2022-09-14T01:51:20;100746.25;;;35.03;35.83
37776;BME280;23614;33.774;130.514;2022-09-14T01:53:42;100742.71;;;35.26;35.47
37776;BME280;23614;33.774;130.514;2022-09-14T01:56:09;100739.71;;;34.92;35.45
37776;BME280;23614;33.774;130.514;2022-09-14T01:58:36;100738.52;;;34.81;36.12
37776;BME280;23614;33.774;130.514;2022-09-14T02:01:01;100740.08;;;34.51;36.40
37776;BME280;23614;33.774;130.514;2022-09-14T02:03:27;100735.07;;;34.63;36.32
37776;BME280;23614;33.774;130.514;2022-09-14T02:05:54;100731.47;;;34.86;36.29
37776;BME280;23614;33.774;130.514;2022-09-14T02:08:16;100726.17;;;34.76;36.06
37776;BME280;23614;33.774;130.514;2022-09-14T02:10:42;100730.57;;;35.04;35.90
37776;BME280;23614;33.774;130.514;2022-09-14T02:13:08;100723.82;;;34.83;35.72
37776;BME280;23614;33.774;130.514;2022-09-14T02:15:35;100716.89;;;34.37;35.96
37776;BME280;23614;33.774;130.514;2022-09-14T02:18:00;100711.59;;;34.88;35.84
37776;BME280;23614;33.774;130.514;2022-09-14T02:20:29;100707.17;;;34.86;35.84
37776;BME280;23614;33.774;130.514;2022-09-14T02:22:53;100707.21;;;34.80;35.72
37776;BME280;23614;33.774;130.514;2022-09-14T02:25:20;100709.10;;;35.03;35.52
37776;BME280;23614;33.774;130.514;2022-09-14T02:27:44;100704.86;;;35.40;35.04
37776;BME280;23614;33.774;130.514;2022-09-14T02:30:11;100703.77;;;35.02;35.28
37776;BME280;23614;33.774;130.514;2022-09-14T02:32:41;100703.09;;;35.33;34.96
37776;BME280;23614;33.774;130.514;2022-09-14T02:35:08;100701.09;;;35.04;34.97
37776;BME280;23614;33.774;130.514;2022-09-14T02:37:36;100701.01;;;35.35;34.59
37776;BME280;23614;33.774;130.514;2022-09-14T02:39:59;100691.38;;;35.41;34.40
37776;BME280;23614;33.774;130.514;2022-09-14T02:42:28;100685.37;;;35.55;34.59
37776;BME280;23614;33.774;130.514;2022-09-14T02:44:57;100686.12;;;35.46;34.52
37776;BME280;23614;33.774;130.514;2022-09-14T02:47:18;100685.41;;;35.77;34.01
37776;BME280;23614;33.774;130.514;2022-09-14T02:49:43;100687.87;;;35.83;34.11
37776;BME280;23614;33.774;130.514;2022-09-14T02:52:09;100680.09;;;35.82;34.27
37776;BME280;23614;33.774;130.514;2022-09-14T02:54:35;100679.53;;;35.77;34.32
37776;BME280;23614;33.774;130.514;2022-09-14T02:57:00;100673.12;;;36.23;33.65
37776;BME280;23614;33.774;130.514;2022-09-14T02:59:22;100668.07;;;36.33;33.12
37776;BME280;23614;33.774;130.514;2022-09-14T03:01:48;100666.89;;;36.38;33.10
37776;BME280;23614;33.774;130.514;2022-09-14T03:04:14;100668.32;;;36.01;33.68
37776;BME280;23614;33.774;130.514;2022-09-14T03:06:40;100661.08;;;36.51;32.84
37776;BME280;23614;33.774;130.514;2022-09-14T03:09:07;100660.38;;;36.29;32.85
37776;BME280;23614;33.774;130.514;2022-09-14T03:11:32;100657.99;;;36.37;32.68
37776;BME280;23614;33.774;130.514;2022-09-14T03:13:58;100660.88;;;36.17;32.76
37776;BME280;23614;33.774;130.514;2022-09-14T03:16:24;100656.12;;;36.50;32.42
37776;BME280;23614;33.774;130.514;2022-09-14T03:18:50;100654.59;;;36.37;31.92
37776;BME280;23614;33.774;130.514;2022-09-14T03:21:17;100645.06;;;36.47;31.79
37776;BME280;23614;33.774;130.514;2022-09-14T03:23:44;100634.55;;;36.37;31.67
37776;BME280;23614;33.774;130.514;2022-09-14T03:26:10;100637.52;;;36.40;32.14
37776;BME280;23614;33.774;130.514;2022-09-14T03:28:35;100637.19;;;36.36;32.20
37776;BME280;23614;33.774;130.514;2022-09-14T03:31:01;100638.52;;;36.72;31.37
37776;BME280;23614;33.774;130.514;2022-09-14T03:33:26;100634.36;;;36.43;31.76
37776;BME280;23614;33.774;130.514;2022-09-14T03:35:52;100634.17;;;36.66;31.42
37776;BME280;23614;33.774;130.514;2022-09-14T03:38:18;100629.16;;;36.31;31.39
37776;BME280;23614;33.774;130.514;2022-09-14T03:40:44;100627.97;;;36.65;31.83
37776;BME280;23614;33.774;130.514;2022-09-14T03:43:11;100625.95;;;37.19;30.84
37776;BME280;23614;33.774;130.514;2022-09-14T03:45:38;100628.16;;;37.13;30.60
37776;BME280;23614;33.774;130.514;2022-09-14T03:48:03;100620.05;;;37.23;30.90
37776;BME280;23614;33.774;130.514;2022-09-14T03:50:29;100619.82;;;37.13;30.85
37776;BME280;23614;33.774;130.514;2022-09-14T03:52:54;100616.32;;;37.52;30.40
37776;BME280;23614;33.774;130.514;2022-09-14T03:55:20;100611.14;;;37.15;30.69
37776;BME280;23614;33.774;130.514;2022-09-14T03:57:46;100611.19;;;37.44;30.60
37776;BME280;23614;33.774;130.514;2022-09-14T04:00:12;100606.38;;;37.52;30.36
37776;BME280;23614;33.774;130.514;2022-09-14T04:02:38;100602.74;;;37.44;30.73
37776;BME280;23614;33.774;130.514;2022-09-14T04:05:04;100596.33;;;37.70;30.48
37776;BME280;23614;33.774;130.514;2022-09-14T04:07:30;100595.47;;;37.46;30.12
37776;BME280;23614;33.774;130.514;2022-09-14T04:09:56;100586.24;;;37.41;30.86
37776;BME280;23614;33.774;130.514;2022-09-14T04:12:22;100584.77;;;37.26;30.95
37776;BME280;23614;33.774;130.514;2022-09-14T04:14:48;100584.89;;;36.54;31.63
37776;BME280;23614;33.774;130.514;2022-09-14T04:17:14;100590.42;;;36.72;31.70
37776;BME280;23614;33.774;130.514;2022-09-14T04:19:41;100588.47;;;36.68;32.03
37776;BME280;23614;33.774;130.514;2022-09-14T04:22:06;100581.91;;;36.85;31.54
37776;BME280;23614;33.774;130.514;2022-09-14T04:24:32;100575.61;;;37.37;30.78
37776;BME280;23614;33.774;130.514;2022-09-14T04:26:59;100574.65;;;37.45;30.95
37776;BME280;23614;33.774;130.514;2022-09-14T04:29:24;100572.71;;;36.97;31.30
37776;BME280;23614;33.774;130.514;2022-09-14T04:31:50;100572.26;;;36.94;31.66
37776;BME280;23614;33.774;130.514;2022-09-14T04:34:17;100566.46;;;37.55;30.98
37776;BME280;23614;33.774;130.514;2022-09-14T04:36:42;100568.19;;;37.20;30.77
37776;BME280;23614;33.774;130.514;2022-09-14T04:39:11;100563.69;;;36.78;30.81
37776;BME280;23614;33.774;130.514;2022-09-14T04:41:34;100559.08;;;37.10;31.29
37776;BME280;23614;33.774;130.514;2022-09-14T04:44:00;100558.36;;;37.38;30.93
37776;BME280;23614;33.774;130.514;2022-09-14T04:46:28;100557.30;;;37.26;30.91
37776;BME280;23614;33.774;130.514;2022-09-14T04:48:52;100552.11;;;37.12;31.02
37776;BME280;23614;33.774;130.514;2022-09-14T04:51:20;100549.63;;;36.75;31.59
37776;BME280;23614;33.774;130.514;2022-09-14T04:53:46;100550.68;;;37.23;31.01
37776;BME280;23614;33.774;130.514;2022-09-14T04:56:11;100547.47;;;37.50;30.36
37776;BME280;23614;33.774;130.514;2022-09-14T04:58:37;100554.87;;;37.59;30.32
37776;BME280;23614;33.774;130.514;2022-09-14T05:01:03;100552.72;;;37.81;30.35
37776;BME280;23614;33.774;130.514;2022-09-14T05:03:28;100549.15;;;37.88;29.75
37776;BME280;23614;33.774;130.514;2022-09-14T05:05:54;100545.73;;;38.06;29.86
37776;BME280;23614;33.774;130.514;2022-09-14T05:08:21;100540.41;;;37.71;30.13
37776;BME280;23614;33.774;130.514;2022-09-14T05:10:47;100540.62;;;37.68;30.32
37776;BME280;23614;33.774;130.514;2022-09-14T05:13:12;100537.38;;;37.85;30.15
37776;BME280;23614;33.774;130.514;2022-09-14T05:15:38;100539.81;;;37.71;29.95
37776;BME280;23614;33.774;130.514;2022-09-14T05:18:04;100540.50;;;37.63;30.23
37776;BME280;23614;33.774;130.514;2022-09-14T05:20:30;100537.51;;;37.25;31.74
37776;BME280;23614;33.774;130.514;2022-09-14T05:22:56;100537.42;;;36.75;32.70
37776;BME280;23614;33.774;130.514;2022-09-14T05:25:22;100532.95;;;36.67;31.95
37776;BME280;23614;33.774;130.514;2022-09-14T05:27:48;100533.76;;;36.75;32.76
37776;BME280;23614;33.774;130.514;2022-09-14T05:30:14;100533.00;;;36.37;33.55
37776;BME280;23614;33.774;130.514;2022-09-14T05:32:41;100528.93;;;36.28;34.19
37776;BME280;23614;33.774;130.514;2022-09-14T05:35:07;100523.39;;;36.11;34.45
37776;BME280;23614;33.774;130.514;2022-09-14T05:37:32;100525.47;;;35.93;34.19
37776;BME280;23614;33.774;130.514;2022-09-14T05:40:00;100517.55;;;35.04;36.19
37776;BME280;23614;33.774;130.514;2022-09-14T05:42:24;100515.18;;;35.04;36.24
37776;BME280;23614;33.774;130.514;2022-09-14T05:44:50;100515.31;;;35.17;36.60
37776;BME280;23614;33.774;130.514;2022-09-14T05:47:16;100521.58;;;34.20;37.33
37776;BME280;23614;33.774;130.514;2022-09-14T05:49:44;100521.89;;;34.55;37.81
37776;BME280;23614;33.774;130.514;2022-09-14T05:52:09;100514.79;;;34.54;37.55
37776;BME280;23614;33.774;130.514;2022-09-14T05:54:34;100516.42;;;33.87;38.23
37776;BME280;23614;33.774;130.514;2022-09-14T05:57:00;100515.53;;;33.77;39.05
37776;BME280;23614;33.774;130.514;2022-09-14T05:59:26;100518.33;;;33.75;39.02
37776;BME280;23614;33.774;130.514;2022-09-14T06:01:52;100513.51;;;33.72;39.45
37776;BME280;23614;33.774;130.514;2022-09-14T06:04:18;100515.83;;;33.38;40.18
37776;BME280;23614;33.774;130.514;2022-09-14T06:06:44;100514.62;;;33.67;39.54
37776;BME280;23614;33.774;130.514;2022-09-14T06:09:10;100513.58;;;33.78;39.49
37776;BME280;23614;33.774;130.514;2022-09-14T06:11:36;100508.44;;;34.18;39.00
37776;BME280;23614;33.774;130.514;2022-09-14T06:14:02;100509.36;;;33.80;39.53
37776;BME280;23614;33.774;130.514;2022-09-14T06:16:29;100503.00;;;33.58;39.83
37776;BME280;23614;33.774;130.514;2022-09-14T06:18:56;100497.70;;;33.64;39.88
37776;BME280;23614;33.774;130.514;2022-09-14T06:21:21;100502.37;;;33.59;40.07
37776;BME280;23614;33.774;130.514;2022-09-14T06:23:47;100503.88;;;33.63;39.70
37776;BME280;23614;33.774;130.514;2022-09-14T06:26:12;100500.83;;;33.94;39.53
37776;BME280;23614;33.774;130.514;2022-09-14T06:28:38;100500.81;;;33.99;39.58
37776;BME280;23614;33.774;130.514;2022-09-14T06:31:05;100495.30;;;33.06;40.65
37776;BME280;23614;33.774;130.514;2022-09-14T06:33:30;100500.22;;;33.16;40.95
37776;BME280;23614;33.774;130.514;2022-09-14T06:35:57;100498.21;;;33.26;41.01
37776;BME280;23614;33.774;130.514;2022-09-14T06:38:22;100500.98;;;33.67;40.48
37776;BME280;23614;33.774;130.514;2022-09-14T06:40:52;100497.47;;;34.01;39.95
37776;BME280;23614;33.774;130.514;2022-09-14T06:43:14;100497.07;;;33.36;39.91
37776;BME280;23614;33.774;130.514;2022-09-14T06:45:40;100499.16;;;34.41;38.91
37776;BME280;23614;33.774;130.514;2022-09-14T06:48:06;100503.85;;;33.95;40.05
37776;BME280;23614;33.774;130.514;2022-09-14T06:50:34;100502.68;;;33.87;40.49
37776;BME280;23614;33.774;130.514;2022-09-14T06:53:00;100504.79;;;34.03;41.09
37776;BME280;23614;33.774;130.514;2022-09-14T06:55:25;100504.31;;;33.86;40.85
37776;BME280;23614;33.774;130.514;2022-09-14T06:57:50;100504.43;;;33.89;41.28
37776;BME280;23614;33.774;130.514;2022-09-14T07:00:17;100501.52;;;34.37;40.68
37776;BME280;23614;33.774;130.514;2022-09-14T07:02:42;100500.58;;;34.28;40.34
37776;BME280;23614;33.774;130.514;2022-09-14T07:05:10;100502.60;;;33.95;40.70
37776;BME280;23614;33.774;130.514;2022-09-14T07:07:34;100503.19;;;33.70;41.26
37776;BME280;23614;33.774;130.514;2022-09-14T07:10:02;100508.11;;;34.17;40.71
37776;BME280;23614;33.774;130.514;2022-09-14T07:12:27;100502.84;;;34.06;40.87
37776;BME280;23614;33.774;130.514;2022-09-14T07:14:52;100505.57;;;33.92;40.58
37776;BME280;23614;33.774;130.514;2022-09-14T07:17:18;100507.15;;;34.48;39.16
37776;BME280;23614;33.774;130.514;2022-09-14T07:19:44;100501.71;;;34.62;38.58
37776;BME280;23614;33.774;130.514;2022-09-14T07:22:10;100498.65;;;34.47;38.59
37776;BME280;23614;33.774;130.514;2022-09-14T07:24:37;100492.27;;;34.29;39.16
37776;BME280;23614;33.774;130.514;2022-09-14T07:27:02;100492.39;;;34.60;38.83
37776;BME280;23614;33.774;130.514;2022-09-14T07:29:28;100498.85;;;33.83;40.20
37776;BME280;23614;33.774;130.514;2022-09-14T07:31:55;100493.96;;;34.12;39.64
37776;BME280;23614;33.774;130.514;2022-09-14T07:34:21;100497.44;;;34.31;39.83
37776;BME280;23614;33.774;130.514;2022-09-14T07:36:47;100498.81;;;33.89;40.71
37776;BME280;23614;33.774;130.514;2022-09-14T07:39:15;100499.70;;;33.71;40.77
37776;BME280;23614;33.774;130.514;2022-09-14T07:41:38;100495.67;;;33.42;41.05
37776;BME280;23614;33.774;130.514;2022-09-14T07:44:06;100496.30;;;33.81;40.50
37776;BME280;23614;33.774;130.514;2022-09-14T07:46:32;100496.16;;;33.03;41.86
37776;BME280;23614;33.774;130.514;2022-09-14T07:48:58;100496.74;;;33.29;41.88
37776;BME280;23614;33.774;130.514;2022-09-14T07:51:24;100498.34;;;33.15;41.82
37776;BME280;23614;33.774;130.514;2022-09-14T07:53:49;100504.86;;;33.65;41.06
37776;BME280;23614;33.774;130.514;2022-09-14T07:56:14;100509.10;;;33.41;41.46
37776;BME280;23614;33.774;130.514;2022-09-14T07:58:40;100506.87;;;33.48;41.32
37776;BME280;23614;33.774;130.514;2022-09-14T08:01:08;100505.47;;;33.00;42.46
37776;BME280;23614;33.774;130.514;2022-09-14T08:03:32;100508.79;;;32.66;43.11
37776;BME280;23614;33.774;130.514;2022-09-14T08:06:01;100506.72;;;33.31;42.49
37776;BME280;23614;33.774;130.514;2022-09-14T08:08:24;100510.27;;;33.57;41.39
37776;BME280;23614;33.774;130.514;2022-09-14T08:10:49;100509.69;;;33.73;41.34
37776;BME280;23614;33.774;130.514;2022-09-14T08:13:16;100507.40;;;33.27;42.35
37776;BME280;23614;33.774;130.514;2022-09-14T08:15:41;100505.23;;;33.38;42.20
37776;BME280;23614;33.774;130.514;2022-09-14T08:18:07;100508.88;;;33.47;42.03
37776;BME280;23614;33.774;130.514;2022-09-14T08:20:34;100512.71;;;33.33;42.34
37776;BME280;23614;33.774;130.514;2022-09-14T08:22:59;100511.18;;;33.66;41.94
37776;BME280;23614;33.774;130.514;2022-09-14T08:25:25;100518.25;;;33.57;41.96
37776;BME280;23614;33.774;130.514;2022-09-14T08:27:51;100524.28;;;33.74;41.25
37776;BME280;23614;33.774;130.514;2022-09-14T08:30:18;100527.55;;;33.65;41.66
37776;BME280;23614;33.774;130.514;2022-09-14T08:32:43;100532.56;;;33.80;41.46
37776;BME280;23614;33.774;130.514;2022-09-14T08:35:09;100537.32;;;33.65;41.79
37776;BME280;23614;33.774;130.514;2022-09-14T08:37:35;100537.08;;;33.50;42.09
37776;BME280;23614;33.774;130.514;2022-09-14T08:40:01;100537.42;;;33.35;42.02
37776;BME280;23614;33.774;130.514;2022-09-14T08:42:27;100536.55;;;33.18;42.41
37776;BME280;23614;33.774;130.514;2022-09-14T08:44:57;100546.18;;;33.58;42.18
37776;BME280;23614;33.774;130.514;2022-09-14T08:47:22;100543.70;;;32.80;42.85
37776;BME280;23614;33.774;130.514;2022-09-14T08:49:47;100542.32;;;33.37;42.30
37776;BME280;23614;33.774;130.514;2022-09-14T08:52:16;100543.22;;;33.01;42.65
37776;BME280;23614;33.774;130.514;2022-09-14T08:54:38;100543.36;;;33.22;42.41
37776;BME280;23614;33.774;130.514;2022-09-14T08:57:11;100544.35;;;33.23;42.65
37776;BME280;23614;33.774;130.514;2022-09-14T08:59:40;100550.75;;;33.31;42.20
37776;BME280;23614;33.774;130.514;2022-09-14T09:02:03;100555.85;;;32.86;43.25
37776;BME280;23614;33.774;130.514;2022-09-14T09:04:55;100554.34;;;32.58;43.58
37776;BME280;23614;33.774;130.514;2022-09-14T09:06:53;100548.73;;;33.02;42.95
37776;BME280;23614;33.774;130.514;2022-09-14T09:09:19;100550.32;;;32.68;43.12
37776;BME280;23614;33.774;130.514;2022-09-14T09:11:42;100552.57;;;33.01;42.47
37776;BME280;23614;33.774;130.514;2022-09-14T09:14:12;100552.68;;;32.97;42.56
37776;BME280;23614;33.774;130.514;2022-09-14T09:16:31;100556.26;;;32.42;43.54
37776;BME280;23614;33.774;130.514;2022-09-14T09:19:02;100559.22;;;32.17;44.12
37776;BME280;23614;33.774;130.514;2022-09-14T09:21:27;100560.10;;;32.32;44.08
37776;BME280;23614;33.774;130.514;2022-09-14T09:23:49;100562.56;;;32.21;43.88
37776;BME280;23614;33.774;130.514;2022-09-14T09:26:20;100567.00;;;32.34;43.63
37776;BME280;23614;33.774;130.514;2022-09-14T09:28:45;100569.62;;;32.29;43.65
37776;BME280;23614;33.774;130.514;2022-09-14T09:31:09;100570.92;;;32.26;43.86
37776;BME280;23614;33.774;130.514;2022-09-14T09:33:33;100570.09;;;32.32;44.09
37776;BME280;23614;33.774;130.514;2022-09-14T09:35:59;100568.27;;;32.36;43.93
37776;BME280;23614;33.774;130.514;2022-09-14T09:38:27;100566.45;;;32.33;43.85
37776;BME280;23614;33.774;130.514;2022-09-14T09:40:54;100567.96;;;32.53;43.41
37776;BME280;23614;33.774;130.514;2022-09-14T09:43:18;100573.71;;;32.67;43.33
37776;BME280;23614;33.774;130.514;2022-09-14T09:45:55;100572.03;;;32.64;42.94
37776;BME280;23614;33.774;130.514;2022-09-14T09:48:10;100569.59;;;32.45;43.14
37776;BME280;23614;33.774;130.514;2022-09-14T09:50:35;100569.96;;;32.47;43.14
37776;BME280;23614;33.774;130.514;2022-09-14T09:53:01;100570.76;;;32.33;43.29
37776;BME280;23614;33.774;130.514;2022-09-14T09:55:31;100570.56;;;32.19;43.44
37776;BME280;23614;33.774;130.514;2022-09-14T09:57:54;100569.07;;;32.26;43.54
37776;BME280;23614;33.774;130.514;2022-09-14T10:00:22;100568.66;;;32.14;43.78
37776;BME280;23614;33.774;130.514;2022-09-14T10:02:45;100572.92;;;32.03;43.99
37776;BME280;23614;33.774;130.514;2022-09-14T10:05:21;100574.71;;;32.17;43.72
37776;BME280;23614;33.774;130.514;2022-09-14T10:07:41;100575.35;;;32.00;44.03
37776;BME280;23614;33.774;130.514;2022-09-14T10:10:07;100576.50;;;32.09;44.08
37776;BME280;23614;33.774;130.514;2022-09-14T10:12:30;100578.50;;;31.90;44.09
37776;BME280;23614;33.774;130.514;2022-09-14T10:15:09;100576.41;;;32.10;44.18
37776;BME280;23614;33.774;130.514;2022-09-14T10:17:22;100573.87;;;31.89;44.13
37776;BME280;23614;33.774;130.514;2022-09-14T10:19:49;100578.28;;;31.89;44.31
37776;BME280;23614;33.774;130.514;2022-09-14T10:22:26;100576.74;;;31.72;44.91
37776;BME280;23614;33.774;130.514;2022-09-14T10:24:39;100579.24;;;31.43;45.27
37776;BME280;23614;33.774;130.514;2022-09-14T10:27:32;100578.00;;;31.58;45.02
37776;BME280;23614;33.774;130.514;2022-09-14T10:29:37;100578.68;;;31.52;45.61
37776;BME280;23614;33.774;130.514;2022-09-14T10:32:02;100577.05;;;31.85;45.02
37776;BME280;23614;33.774;130.514;2022-09-14T10:34:23;100581.92;;;31.87;44.77
37776;BME280;23614;33.774;130.514;2022-09-14T10:36:55;100584.96;;;31.75;44.77
37776;BME280;23614;33.774;130.514;2022-09-14T10:39:20;100586.23;;;31.89;44.58
37776;BME280;23614;33.774;130.514;2022-09-14T10:41:45;100589.35;;;31.90;44.28
37776;BME280;23614;33.774;130.514;2022-09-14T10:44:26;100593.78;;;31.96;44.00
37776;BME280;23614;33.774;130.514;2022-09-14T10:46:39;100599.29;;;31.69;44.54
37776;BME280;23614;33.774;130.514;2022-09-14T10:49:13;100602.81;;;31.95;44.07
37776;BME280;23614;33.774;130.514;2022-09-14T10:51:36;100611.33;;;32.00;44.03
37776;BME280;23614;33.774;130.514;2022-09-14T10:53:54;100616.36;;;32.15;43.86
37776;BME280;23614;33.774;130.514;2022-09-14T10:56:20;100619.54;;;32.36;43.34
37776;BME280;23614;33.774;130.514;2022-09-14T10:59:01;100625.26;;;32.53;43.27
37776;BME280;23614;33.774;130.514;2022-09-14T11:01:22;100632.98;;;32.48;42.95
37776;BME280;23614;33.774;130.514;2022-09-14T11:03:47;100640.80;;;32.21;43.36
37776;BME280;23614;33.774;130.514;2022-09-14T11:06:10;100647.35;;;32.54;43.15
37776;BME280;23614;33.774;130.514;2022-09-14T11:08:31;100649.68;;;32.23;43.08
37776;BME280;23614;33.774;130.514;2022-09-14T11:11:12;100651.27;;;32.68;42.48
37776;BME280;23614;33.774;130.514;2022-09-14T11:13:49;100648.01;;;32.40;42.87
37776;BME280;23614;33.774;130.514;2022-09-14T11:15:53;100648.83;;;32.45;42.61
37776;BME280;23614;33.774;130.514;2022-09-14T11:18:20;100647.91;;;32.61;42.54
37776;BME280;23614;33.774;130.514;2022-09-14T11:20:49;100647.09;;;32.39;42.77
37776;BME280;23614;33.774;130.514;2022-09-14T11:23:16;100647.77;;;32.50;42.89
37776;BME280;23614;33.774;130.514;2022-09-14T11:25:34;100651.52;;;32.57;42.44
37776;BME280;23614;33.774;130.514;2022-09-14T11:27:58;100651.51;;;32.52;42.33
37776;BME280;23614;33.774;130.514;2022-09-14T11:30:22;100650.68;;;32.35;42.50
37776;BME280;23614;33.774;130.514;2022-09-14T11:32:50;100653.10;;;32.34;42.72
37776;BME280;23614;33.774;130.514;2022-09-14T11:35:18;100654.57;;;32.20;42.61
37776;BME280;23614;33.774;130.514;2022-09-14T11:37:41;100658.09;;;32.31;42.75
37776;BME280;23614;33.774;130.514;2022-09-14T11:40:14;100655.01;;;32.08;42.79
37776;BME280;23614;33.774;130.514;2022-09-14T11:42:34;100657.75;;;32.21;42.50
37776;BME280;23614;33.774;130.514;2022-09-14T11:45:04;100658.41;;;32.31;42.82
37776;BME280;23614;33.774;130.514;2022-09-14T11:47:23;100660.32;;;32.06;42.82
37776;BME280;23614;33.774;130.514;2022-09-14T11:49:55;100660.44;;;32.22;42.65
37776;BME280;23614;33.774;130.514;2022-09-14T11:52:18;100658.35;;;32.09;43.02
37776;BME280;23614;33.774;130.514;2022-09-14T11:54:41;100660.50;;;32.26;42.51
37776;BME280;23614;33.774;130.514;2022-09-14T11:57:12;100665.25;;;32.21;42.58
37776;BME280;23614;33.774;130.514;2022-09-14T11:59:44;100667.63;;;32.14;42.49
37776;BME280;23614;33.774;130.514;2022-09-14T12:02:44;100669.10;;;32.02;42.68
37776;BME280;23614;33.774;130.514;2022-09-14T12:04:25;100669.33;;;32.07;42.25
37776;BME280;23614;33.774;130.514;2022-09-14T12:06:53;100678.39;;;32.36;41.85
37776;BME280;23614;33.774;130.514;2022-09-14T12:09:51;100678.52;;;32.09;42.34
37776;BME280;23614;33.774;130.514;2022-09-14T12:11:44;100682.24;;;32.06;41.96
37776;BME280;23614;33.774;130.514;2022-09-14T12:14:27;100684.25;;;32.32;41.24
37776;BME280;23614;33.774;130.514;2022-09-14T12:17:03;100684.79;;;32.17;41.44
37776;BME280;23614;33.774;130.514;2022-09-14T12:19:01;100688.59;;;32.29;41.08
37776;BME280;23614;33.774;130.514;2022-09-14T12:21:27;100688.45;;;32.34;40.86
37776;BME280;23614;33.774;130.514;2022-09-14T12:23:54;100687.85;;;32.39;41.21